createdAt,value
2022-10-09T00:03:41.914Z,102612.34
2022-10-09T00:08:31.650Z,102613.88
2022-10-09T00:13:23.784Z,102616.25
2022-10-09T00:18:15.198Z,102604.03
2022-10-09T00:23:04.854Z,102609.03
2022-10-09T00:27:56.543Z,102608.03
2022-10-09T00:32:50.963Z,102616.50
2022-10-09T00:37:40.502Z,102607.72
2022-10-09T00:42:30.220Z,102609.31
2022-10-09T00:47:21.551Z,102604.84
2022-10-09T00:52:16.313Z,102605.56
2022-10-09T00:57:06.074Z,102598.56
2022-10-09T01:01:57.858Z,102597.66
2022-10-09T01:06:53.100Z,102595.75
2022-10-09T01:11:51.126Z,102593.81
2022-10-09T01:16:43.826Z,102587.66
2022-10-09T01:21:37.166Z,102594.31
2022-10-09T01:26:34.562Z,102591.63
2022-10-09T01:31:27.919Z,102584.69
2022-10-09T01:36:21.297Z,102581.94
2022-10-09T01:41:11.227Z,102578.38
2022-10-09T01:46:15.604Z,102568.81
2022-10-09T01:51:08.332Z,102563.53
2022-10-09T01:56:03.260Z,102559.22
2022-10-09T02:00:55.610Z,102553.97
2022-10-09T02:05:46.371Z,102540.97
2022-10-09T02:10:48.264Z,102539.09
2022-10-09T02:15:44.476Z,102528.13
2022-10-09T02:20:39.218Z,102503.75
2022-10-09T02:25:29.215Z,102537.97
2022-10-09T02:30:24.407Z,102527.63
2022-10-09T02:35:14.526Z,102528.34
2022-10-09T02:40:09.738Z,102514.19
2022-10-09T02:45:00.299Z,102531.66
2022-10-09T02:49:52.735Z,102508.03
2022-10-09T02:54:43.615Z,102527.19
2022-10-09T02:59:33.819Z,102528.84
2022-10-09T03:04:23.779Z,102500.16
2022-10-09T03:09:16.166Z,102516.19
2022-10-09T03:14:05.971Z,102496.94
2022-10-09T03:18:57.240Z,102504.81
2022-10-09T03:23:47.649Z,102509.28
2022-10-09T03:28:47.053Z,102510.94
2022-10-09T03:33:37.440Z,102508.50
2022-10-09T03:38:27.438Z,102485.47
2022-10-09T03:43:19.170Z,102489.78
2022-10-09T03:48:13.393Z,102501.22
2022-10-09T03:53:03.504Z,102501.94
2022-10-09T03:57:53.169Z,102518.34
2022-10-09T04:02:43.142Z,102502.44
2022-10-09T04:07:35.564Z,102512.13
2022-10-09T04:12:25.348Z,102524.13
2022-10-09T04:17:15.232Z,102519.81
2022-10-09T04:22:05.030Z,102516.22
2022-10-09T04:26:57.369Z,102505.03
2022-10-09T04:31:47.158Z,102486.56
2022-10-09T04:36:36.901Z,102497.09
2022-10-09T04:41:26.693Z,102507.59
2022-10-09T04:46:19.503Z,102480.63
2022-10-09T04:51:10.364Z,102488.34
2022-10-09T04:56:00.087Z,102480.47
2022-10-09T05:00:50.885Z,102475.09
2022-10-09T05:05:43.391Z,102488.22
2022-10-09T05:10:33.613Z,102491.72
2022-10-09T05:15:23.399Z,102487.28
2022-10-09T05:20:13.265Z,102478.25
2022-10-09T05:25:05.973Z,102469.47
2022-10-09T05:29:56.930Z,102462.50
2022-10-09T05:34:46.629Z,102483.22
2022-10-09T05:39:40.427Z,102456.81
2022-10-09T05:44:32.838Z,102474.38
2022-10-09T05:49:22.852Z,102459.25
2022-10-09T05:54:17.175Z,102490.53
2022-10-09T05:59:09.985Z,102444.94
2022-10-09T06:04:04.120Z,102490.41
2022-10-09T06:08:54.350Z,102458.13
2022-10-09T06:13:44.818Z,102476.66
2022-10-09T06:18:34.545Z,102472.13
2022-10-09T06:23:27.143Z,102479.84
2022-10-09T06:28:16.987Z,102473.88
2022-10-09T06:33:06.923Z,102482.88
2022-10-09T06:37:56.623Z,102467.03
2022-10-09T06:42:49.097Z,102484.00
2022-10-09T06:47:40.419Z,102484.09
2022-10-09T06:52:30.067Z,102474.56
2022-10-09T06:57:19.731Z,102461.38
2022-10-09T07:02:12.153Z,102487.09
2022-10-09T07:07:02.887Z,102493.16
2022-10-09T07:11:53.169Z,102497.59
2022-10-09T07:16:45.640Z,102480.28
2022-10-09T07:21:38.416Z,102489.31
2022-10-09T07:26:30.456Z,102443.84
2022-10-09T07:31:20.598Z,102438.06
2022-10-09T07:36:12.427Z,102487.41
2022-10-09T07:41:12.911Z,102479.97
2022-10-09T07:46:03.006Z,102459.22
2022-10-09T07:50:52.991Z,102456.97
2022-10-09T07:55:47.622Z,102457.34
2022-10-09T08:00:40.198Z,102456.13
2022-10-09T08:05:29.956Z,102459.28
2022-10-09T08:10:19.734Z,102459.81
2022-10-09T08:15:13.091Z,102466.44
2022-10-09T08:20:05.660Z,102461.56
2022-10-09T08:24:55.433Z,102432.47
2022-10-09T08:29:45.151Z,102441.50
2022-10-09T08:34:35.147Z,102462.03
2022-10-09T08:39:30.965Z,102416.91
2022-10-09T08:44:24.051Z,102455.00
2022-10-09T08:49:33.673Z,102421.16
2022-10-09T08:54:36.108Z,102441.16
2022-10-09T08:59:25.902Z,102421.94
2022-10-09T09:04:38.384Z,102444.97
2022-10-09T09:09:54.755Z,102415.47
2022-10-09T09:14:58.449Z,102421.72
2022-10-09T09:20:01.097Z,102394.44
2022-10-09T09:24:54.341Z,102425.66
2022-10-09T09:29:46.364Z,102426.94
2022-10-09T09:34:39.801Z,102422.44
2022-10-09T09:40:30.930Z,102416.25
2022-10-09T09:44:50.555Z,102408.44
2022-10-09T09:49:55.729Z,102399.69
2022-10-09T09:54:50.479Z,102398.50
2022-10-09T09:59:41.252Z,102387.75
2022-10-09T10:04:38.736Z,102377.72
2022-10-09T10:09:32.882Z,102382.38
2022-10-09T10:14:24.613Z,102367.84
2022-10-09T10:19:23.160Z,102357.69
2022-10-09T10:24:21.494Z,102357.03
2022-10-09T10:29:17.172Z,102322.31
2022-10-09T10:34:11.755Z,102349.44
2022-10-09T10:39:06.319Z,102338.16
2022-10-09T10:44:09.821Z,102333.84
2022-10-09T10:49:02.518Z,102323.47
2022-10-09T10:53:58.436Z,102315.66
2022-10-09T10:58:54.607Z,102306.94
2022-10-09T11:03:56.004Z,102296.50
2022-10-09T11:08:52.768Z,102282.56
2022-10-09T11:13:47.416Z,102277.34
2022-10-09T11:18:47.152Z,102268.63
2022-10-09T11:23:57.594Z,102258.19
2022-10-09T11:28:54.567Z,102260.78
2022-10-09T11:33:45.689Z,102242.47
2022-10-09T11:38:41.821Z,102246.81
2022-10-09T11:43:46.229Z,102239.84
2022-10-09T11:48:42.979Z,102231.09
2022-10-09T11:53:37.647Z,102221.53
2022-10-09T11:58:27.884Z,102213.69
2022-10-09T12:03:30.162Z,102195.38
2022-10-09T12:08:31.260Z,102186.66
2022-10-09T12:13:44.999Z,102185.81
2022-10-09T12:18:36.436Z,102165.72
2022-10-09T12:23:33.478Z,102166.56
2022-10-09T12:28:29.216Z,102149.16
2022-10-09T12:33:23.963Z,102138.72
2022-10-09T12:38:18.569Z,102129.94
2022-10-09T12:43:14.228Z,102115.09
2022-10-09T12:48:12.946Z,102102.84
2022-10-09T12:53:05.988Z,102098.41
2022-10-09T12:57:57.763Z,102095.81
2022-10-09T13:02:50.293Z,102078.34
2022-10-09T13:07:45.336Z,102076.63
2022-10-09T13:12:38.207Z,102064.44
2022-10-09T13:17:29.017Z,102057.47
2022-10-09T13:22:25.065Z,102039.16
2022-10-09T13:27:14.888Z,102033.00
2022-10-09T13:32:04.439Z,102022.53
2022-10-09T13:36:54.037Z,102011.19
2022-10-09T13:41:49.107Z,102012.06
2022-10-09T13:46:38.872Z,102007.66
2022-10-09T13:51:29.411Z,101998.94
2022-10-09T13:56:20.000Z,101989.34
2022-10-09T14:01:12.870Z,101988.47
2022-10-09T14:06:04.412Z,101982.34
2022-10-09T14:10:54.072Z,101974.50
2022-10-09T14:15:44.073Z,101971.91
2022-10-09T14:20:36.504Z,101948.38
2022-10-09T14:25:26.161Z,101952.72
2022-10-09T14:30:16.062Z,101943.16
2022-10-09T14:35:05.477Z,101939.75
2022-10-09T14:40:01.665Z,101924.97
2022-10-09T14:44:51.650Z,101919.78
2022-10-09T14:49:41.089Z,101911.97
2022-10-09T14:54:30.584Z,101898.91
2022-10-09T14:59:22.585Z,101896.34
2022-10-09T15:04:14.260Z,101892.88
2022-10-09T15:09:06.170Z,101879.84
2022-10-09T15:13:56.125Z,101867.66
2022-10-09T15:18:50.068Z,101872.94
2022-10-09T15:23:39.692Z,101862.53
2022-10-09T15:28:29.909Z,101866.06
2022-10-09T15:33:22.621Z,101851.25
2022-10-09T15:38:17.680Z,101847.81
2022-10-09T15:43:07.933Z,101844.38
2022-10-09T15:47:57.412Z,101840.06
2022-10-09T15:52:47.124Z,101836.63
2022-10-09T15:57:39.853Z,101827.94
2022-10-09T16:02:29.783Z,101821.03
2022-10-09T16:07:19.214Z,101812.38
2022-10-09T16:12:08.703Z,101804.59
2022-10-09T16:17:01.094Z,101798.56
2022-10-09T16:21:53.228Z,101794.25
2022-10-09T16:26:45.444Z,101789.91
2022-10-09T16:31:37.748Z,101782.13
2022-10-09T16:36:35.691Z,101782.19
2022-10-09T16:41:25.858Z,101748.38
2022-10-09T16:46:18.476Z,101781.44
2022-10-09T16:51:12.701Z,101759.75
2022-10-09T16:56:15.977Z,101764.09
2022-10-09T17:01:10.130Z,101758.06
2022-10-09T17:06:00.050Z,101760.69
2022-10-09T17:10:51.038Z,101761.56
2022-10-09T17:15:45.788Z,101759.84
2022-10-09T17:20:38.323Z,101759.84
2022-10-09T17:25:28.928Z,101755.50
2022-10-09T17:30:18.428Z,101758.97
2022-10-09T17:35:11.938Z,101754.63
2022-10-09T17:40:02.439Z,101753.72
2022-10-09T17:44:56.018Z,101753.72
2022-10-09T17:49:46.628Z,101746.75
2022-10-09T17:54:39.954Z,101748.47
2022-10-09T17:59:29.624Z,101737.13
2022-10-09T18:04:19.471Z,101741.41
2022-10-09T18:09:12.408Z,101741.34
2022-10-09T18:14:04.582Z,101739.56
2022-10-09T18:18:55.985Z,101733.47
2022-10-09T18:23:45.594Z,101727.34
2022-10-09T18:28:35.625Z,101729.88
2022-10-09T18:33:27.717Z,101732.41
2022-10-09T18:38:17.078Z,101725.41
2022-10-09T18:43:06.635Z,101726.19
2022-10-09T18:47:56.355Z,101723.53
2022-10-09T18:52:48.918Z,101727.78
2022-10-09T18:57:38.905Z,101724.28
2022-10-09T19:02:31.098Z,101711.25
2022-10-09T19:07:20.558Z,101706.88
2022-10-09T19:12:12.627Z,101704.22
2022-10-09T19:17:02.906Z,101703.31
2022-10-09T19:21:53.575Z,101688.59
2022-10-09T19:26:44.929Z,101688.53
2022-10-09T19:31:37.579Z,101681.56
2022-10-09T19:36:27.006Z,101663.38
2022-10-09T19:41:19.742Z,101664.19
2022-10-09T19:46:11.024Z,101652.06
2022-10-09T19:51:07.423Z,101655.47
2022-10-09T19:55:56.839Z,101653.69
2022-10-09T20:00:47.642Z,101651.91
2022-10-09T20:05:37.998Z,101648.44
2022-10-09T20:10:30.207Z,101643.19
2022-10-09T20:15:20.598Z,101644.88
2022-10-09T20:20:11.532Z,101648.31
2022-10-09T20:25:00.921Z,101630.13
2022-10-09T20:29:54.899Z,101628.38
2022-10-09T20:34:44.354Z,101629.19
2022-10-09T20:39:36.168Z,101635.22
2022-10-09T20:44:25.675Z,101629.97
2022-10-09T20:49:18.827Z,101627.34
2022-10-09T20:54:10.037Z,101598.75
2022-10-09T20:59:00.834Z,101587.53
2022-10-09T21:03:50.851Z,101533.75
2022-10-09T21:08:44.391Z,101571.13
2022-10-09T21:13:34.162Z,101603.28
2022-10-09T21:18:23.789Z,101591.13
2022-10-09T21:23:15.086Z,101591.94
2022-10-09T21:28:08.530Z,101586.72
2022-10-09T21:32:59.026Z,101591.94
2022-10-09T21:37:48.821Z,101585.81
2022-10-09T21:42:39.711Z,101589.25
2022-10-09T21:47:32.267Z,101582.34
2022-10-09T21:52:21.975Z,101557.94
2022-10-09T21:57:11.891Z,101538.69
2022-10-09T22:02:02.978Z,101564.88
2022-10-09T22:06:57.247Z,101570.06
2022-10-09T22:11:47.239Z,101569.09
2022-10-09T22:16:37.032Z,101561.28
2022-10-09T22:21:28.671Z,101498.66
2022-10-09T22:26:22.790Z,101564.66
2022-10-09T22:31:16.027Z,101551.63
2022-10-09T22:36:14.301Z,101556.81
2022-10-09T22:41:09.619Z,101560.19
2022-10-09T22:46:02.090Z,101522.81
2022-10-09T22:50:51.861Z,101553.28
2022-10-09T22:55:43.099Z,101543.72
2022-10-09T23:00:33.011Z,101546.38
2022-10-09T23:05:27.370Z,101546.38
2022-10-09T23:10:17.221Z,101511.66
2022-10-09T23:15:09.295Z,101509.06
2022-10-09T23:19:59.420Z,101516.91
2022-10-09T23:24:51.877Z,101526.47
2022-10-09T23:29:42.150Z,101503.91
2022-10-09T23:34:31.948Z,101495.25
2022-10-09T23:39:21.716Z,101506.56
2022-10-09T23:44:15.960Z,101505.69
2022-10-09T23:49:08.171Z,101502.25
2022-10-09T23:53:58.260Z,101497.94
2022-10-09T23:58:48.824Z,101500.50
